Terminal Aerodrome Forecast
Issued by NWS

Home | Current Version | Previous Version | Text Only | Print | Product List | Glossary On
Versions: 1 2 3 4 5 6 7 8 9 10 11 12
000
FTUS42 TJSJ 221139
TAFJMZ
TAF
TJMZ 221139Z 2212/2312 08004KT P6SM FEW030
     FM221600 26009KT P6SM VCSH SCT025 SCT040
     FM222300 07004KT P6SM FEW035 FEW090
      AMD NOT SKED=

USA.gov is the U.S. government's official web portal to all federal, state and local government web resources and services.